createdAt,value
2022-08-26T00:01:42.188Z,21.31
2022-08-26T00:04:12.472Z,21.46
2022-08-26T00:06:42.451Z,21.49
2022-08-26T00:09:13.240Z,21.62
2022-08-26T00:11:43.172Z,21.65
2022-08-26T00:14:09.915Z,21.49
2022-08-26T00:16:40.883Z,21.27
2022-08-26T00:19:07.955Z,21.30
2022-08-26T00:21:35.188Z,20.92
2022-08-26T00:24:04.702Z,20.97
2022-08-26T00:26:33.663Z,21.14
2022-08-26T00:29:00.474Z,21.18
2022-08-26T00:31:27.311Z,21.40
2022-08-26T00:33:54.104Z,21.29
2022-08-26T00:36:22.754Z,21.23
2022-08-26T00:38:49.852Z,20.97
2022-08-26T00:41:19.703Z,21.01
2022-08-26T00:43:47.314Z,21.02
2022-08-26T00:46:19.813Z,20.97
2022-08-26T00:48:51.288Z,20.95
2022-08-26T00:51:29.597Z,20.98
2022-08-26T00:54:10.680Z,21.02
2022-08-26T00:57:15.905Z,21.16
2022-08-26T00:59:51.441Z,21.09
2022-08-26T01:02:18.112Z,21.31
2022-08-26T01:04:48.369Z,21.30
2022-08-26T01:07:21.794Z,21.25
2022-08-26T01:09:48.722Z,21.18
2022-08-26T01:12:15.885Z,21.11
2022-08-26T01:14:49.533Z,21.16
2022-08-26T01:17:16.331Z,21.18
2022-08-26T01:20:24.110Z,21.32
2022-08-26T01:22:58.406Z,21.25
2022-08-26T01:25:33.306Z,21.28
2022-08-26T01:28:03.909Z,21.41
2022-08-26T01:30:31.443Z,21.22
2022-08-26T01:33:01.338Z,21.18
2022-08-26T01:35:29.389Z,21.21
2022-08-26T01:37:56.532Z,21.18
2022-08-26T01:40:32.103Z,21.08
2022-08-26T01:43:01.502Z,21.09
2022-08-26T01:45:33.293Z,21.22
2022-08-26T01:48:03.534Z,21.16
2022-08-26T01:50:33.553Z,21.35
2022-08-26T01:53:05.993Z,21.34
2022-08-26T01:55:34.519Z,21.10
2022-08-26T01:58:05.503Z,21.27
2022-08-26T02:00:34.144Z,21.13
2022-08-26T02:03:21.583Z,21.29
2022-08-26T02:05:53.033Z,21.32
2022-08-26T02:08:25.495Z,21.25
2022-08-26T02:10:54.886Z,21.21
2022-08-26T02:13:22.969Z,21.43
2022-08-26T02:15:52.265Z,21.35
2022-08-26T02:18:19.424Z,21.24
2022-08-26T02:20:46.286Z,21.32
2022-08-26T02:23:15.259Z,21.21
2022-08-26T02:25:51.564Z,21.16
2022-08-26T02:28:19.795Z,21.13
2022-08-26T02:30:47.470Z,21.26
2022-08-26T02:33:17.447Z,21.29
2022-08-26T02:35:46.231Z,21.15
2022-08-26T02:38:15.704Z,21.15
2022-08-26T02:40:43.884Z,21.18
2022-08-26T02:43:12.551Z,21.16
2022-08-26T02:45:40.353Z,21.10
2022-08-26T02:48:15.289Z,21.05
2022-08-26T02:50:42.538Z,21.16
2022-08-26T02:53:09.516Z,21.14
2022-08-26T02:55:36.844Z,21.23
2022-08-26T02:58:04.413Z,21.15
2022-08-26T03:00:31.652Z,21.18
2022-08-26T03:02:59.642Z,21.07
2022-08-26T03:05:26.723Z,21.05
2022-08-26T03:07:53.608Z,21.19
2022-08-26T03:10:21.782Z,21.20
2022-08-26T03:12:48.485Z,21.11
2022-08-26T03:15:19.519Z,21.20
2022-08-26T03:17:48.086Z,21.19
2022-08-26T03:20:17.527Z,21.08
2022-08-26T03:22:48.815Z,21.03
2022-08-26T03:25:16.710Z,21.10
2022-08-26T03:27:43.562Z,21.18
2022-08-26T03:30:32.265Z,21.12
2022-08-26T03:32:59.875Z,21.13
2022-08-26T03:35:27.418Z,21.00
2022-08-26T03:37:54.104Z,21.07
2022-08-26T03:40:21.359Z,21.11
2022-08-26T03:42:50.030Z,21.14
2022-08-26T03:45:19.996Z,21.13
2022-08-26T03:47:50.107Z,21.10
2022-08-26T03:50:22.671Z,21.11
2022-08-26T03:52:51.558Z,21.13
2022-08-26T03:55:26.999Z,21.06
2022-08-26T03:57:54.593Z,21.02
2022-08-26T04:00:22.216Z,20.98
2022-08-26T04:02:51.193Z,20.96
2022-08-26T04:05:22.753Z,20.89
2022-08-26T04:07:49.982Z,20.82
2022-08-26T04:10:22.134Z,20.90
2022-08-26T04:12:56.224Z,20.94
2022-08-26T04:15:26.933Z,20.80
2022-08-26T04:17:53.511Z,20.97
2022-08-26T04:20:22.522Z,20.93
2022-08-26T04:22:52.412Z,20.90
2022-08-26T04:25:22.130Z,20.95
2022-08-26T04:27:50.927Z,20.87
2022-08-26T04:30:17.758Z,20.86
2022-08-26T04:32:44.926Z,20.84
2022-08-26T04:35:11.513Z,20.84
2022-08-26T04:37:38.703Z,20.85
2022-08-26T04:40:06.534Z,20.87
2022-08-26T04:42:33.522Z,20.77
2022-08-26T04:45:01.095Z,20.82
2022-08-26T04:47:32.128Z,20.78
2022-08-26T04:49:58.991Z,20.82
2022-08-26T04:52:29.637Z,20.78
2022-08-26T04:54:59.630Z,20.70
2022-08-26T04:57:27.140Z,20.53
2022-08-26T04:59:53.995Z,20.84
2022-08-26T05:02:22.776Z,20.80
2022-08-26T05:04:53.472Z,20.80
2022-08-26T05:07:22.287Z,20.82
2022-08-26T05:09:48.932Z,20.90
2022-08-26T05:12:15.751Z,20.84
2022-08-26T05:14:43.448Z,20.77
2022-08-26T05:17:10.574Z,20.70
2022-08-26T05:19:42.943Z,20.72
2022-08-26T05:22:09.775Z,20.74
2022-08-26T05:24:39.810Z,20.72
2022-08-26T05:27:11.536Z,20.67
2022-08-26T05:29:39.721Z,20.71
2022-08-26T05:32:07.368Z,20.57
2022-08-26T05:34:34.522Z,20.60
2022-08-26T05:37:02.084Z,20.67
2022-08-26T05:39:29.525Z,20.71
2022-08-26T05:41:56.636Z,20.59
2022-08-26T05:44:24.721Z,20.70
2022-08-26T05:46:52.038Z,20.62
2022-08-26T05:49:18.699Z,20.69
2022-08-26T05:51:47.647Z,20.73
2022-08-26T05:54:22.223Z,20.78
2022-08-26T05:56:51.156Z,20.75
2022-08-26T05:59:23.911Z,20.73
2022-08-26T06:01:55.200Z,20.63
2022-08-26T06:04:23.290Z,20.77
2022-08-26T06:06:53.731Z,20.81
2022-08-26T06:09:20.692Z,20.70
2022-08-26T06:11:48.071Z,20.67
2022-08-26T06:14:14.663Z,20.69
2022-08-26T06:16:45.139Z,20.84
2022-08-26T06:19:15.114Z,20.89
2022-08-26T06:21:45.235Z,20.80
2022-08-26T06:24:32.451Z,20.82
2022-08-26T06:27:01.908Z,20.85
2022-08-26T06:29:31.207Z,21.00
2022-08-26T06:31:58.408Z,21.15
2022-08-26T06:34:30.452Z,21.39
2022-08-26T06:36:59.878Z,21.63
2022-08-26T06:39:30.610Z,21.82
2022-08-26T06:41:58.929Z,21.94
2022-08-26T06:44:25.823Z,21.99
2022-08-26T06:46:52.461Z,21.90
2022-08-26T06:49:26.599Z,21.80
2022-08-26T06:51:54.104Z,21.85
2022-08-26T06:54:22.999Z,21.79
2022-08-26T06:56:51.949Z,21.91
2022-08-26T06:59:21.941Z,21.90
2022-08-26T07:01:49.628Z,22.01
2022-08-26T07:04:20.128Z,22.01
2022-08-26T07:06:52.702Z,21.95
2022-08-26T07:09:22.055Z,21.99
2022-08-26T07:11:49.357Z,21.95
2022-08-26T07:14:16.843Z,22.06
2022-08-26T07:16:48.786Z,21.95
2022-08-26T07:19:16.664Z,21.93
2022-08-26T07:21:46.250Z,22.23
2022-08-26T07:24:14.023Z,22.18
2022-08-26T07:26:43.170Z,21.99
2022-08-26T07:29:12.485Z,22.11
2022-08-26T07:31:42.381Z,22.15
2022-08-26T07:34:10.824Z,22.18
2022-08-26T07:36:37.838Z,22.16
2022-08-26T07:39:05.389Z,22.15
2022-08-26T07:41:31.967Z,22.30
2022-08-26T07:43:58.677Z,22.34
2022-08-26T07:46:27.072Z,22.44
2022-08-26T07:48:57.720Z,22.50
2022-08-26T07:51:25.065Z,22.39
2022-08-26T07:53:54.902Z,22.58
2022-08-26T07:56:25.111Z,22.77
2022-08-26T07:58:53.574Z,23.03
2022-08-26T08:01:23.552Z,23.24
2022-08-26T08:03:53.870Z,23.42
2022-08-26T08:06:27.320Z,23.30
2022-08-26T08:08:56.138Z,23.33
2022-08-26T08:11:24.142Z,23.38
2022-08-26T08:13:56.474Z,23.47
2022-08-26T08:16:25.078Z,23.71
2022-08-26T08:18:53.412Z,23.76
2022-08-26T08:21:23.878Z,23.76
2022-08-26T08:23:55.480Z,23.81
2022-08-26T08:26:24.099Z,23.72
2022-08-26T08:28:54.718Z,23.65
2022-08-26T08:31:56.704Z,23.44
2022-08-26T08:34:16.797Z,23.30
2022-08-26T08:36:46.345Z,23.18
2022-08-26T08:39:13.489Z,23.13
2022-08-26T08:42:19.141Z,23.03
2022-08-26T08:44:52.839Z,22.96
2022-08-26T08:47:36.059Z,22.92
2022-08-26T08:50:21.879Z,22.98
2022-08-26T08:53:17.525Z,23.04
2022-08-26T08:56:06.318Z,23.33
2022-08-26T08:59:08.090Z,23.39
2022-08-26T09:02:05.490Z,23.38
2022-08-26T09:04:33.046Z,23.36
2022-08-26T09:07:02.638Z,23.37
2022-08-26T09:09:40.966Z,23.35
2022-08-26T09:12:14.892Z,23.24
2022-08-26T09:14:45.812Z,23.28
2022-08-26T09:17:22.563Z,23.30
2022-08-26T09:19:58.640Z,23.45
2022-08-26T09:22:34.544Z,23.48
2022-08-26T09:25:01.897Z,23.68
2022-08-26T09:27:42.270Z,23.83
2022-08-26T09:30:12.488Z,23.85
2022-08-26T09:32:39.895Z,23.76
2022-08-26T09:35:23.157Z,23.72
2022-08-26T09:40:36.105Z,23.79
2022-08-26T09:43:22.375Z,23.88
2022-08-26T09:45:59.506Z,23.88
2022-08-26T09:48:35.432Z,23.94
2022-08-26T09:51:07.221Z,23.94
2022-08-26T09:53:47.555Z,24.13
2022-08-26T09:56:25.932Z,24.29
2022-08-26T09:58:56.633Z,24.33
2022-08-26T10:01:23.183Z,24.51
2022-08-26T10:03:51.767Z,24.79
2022-08-26T10:06:21.112Z,25.96
2022-08-26T10:08:54.154Z,27.31
2022-08-26T10:11:39.699Z,28.38
2022-08-26T10:14:15.746Z,29.04
2022-08-26T10:16:52.714Z,29.82
2022-08-26T10:19:29.078Z,29.82
2022-08-26T10:22:04.958Z,29.61
2022-08-26T10:24:38.144Z,29.73
2022-08-26T10:27:16.485Z,29.96
2022-08-26T10:29:50.493Z,29.96
2022-08-26T10:32:32.231Z,29.67
2022-08-26T10:35:00.292Z,29.21
2022-08-26T10:37:36.431Z,28.86
2022-08-26T10:40:27.377Z,28.50
2022-08-26T10:43:11.092Z,28.23
2022-08-26T10:45:46.849Z,27.96
2022-08-26T10:48:19.096Z,27.82
2022-08-26T10:50:48.082Z,27.70
2022-08-26T10:53:17.690Z,27.62
2022-08-26T10:56:18.861Z,27.62
2022-08-26T10:58:57.718Z,27.63
2022-08-26T11:02:07.498Z,27.53
2022-08-26T11:04:56.129Z,27.36
2022-08-26T11:07:32.616Z,27.24
2022-08-26T11:10:01.880Z,27.05
2022-08-26T11:12:37.567Z,27.18
2022-08-26T11:15:06.976Z,27.13
2022-08-26T11:17:44.455Z,26.81
2022-08-26T11:20:23.778Z,26.65
2022-08-26T11:22:52.804Z,26.78
2022-08-26T11:25:30.048Z,26.95
2022-08-26T11:27:59.860Z,27.03
2022-08-26T11:30:40.381Z,27.08
2022-08-26T11:33:08.164Z,27.17
2022-08-26T11:35:34.803Z,27.14
2022-08-26T11:38:21.642Z,27.02
2022-08-26T11:41:06.915Z,26.94
2022-08-26T11:43:33.971Z,26.83
2022-08-26T11:46:02.794Z,27.03
2022-08-26T11:48:33.533Z,27.25
2022-08-26T11:51:09.670Z,27.36
2022-08-26T11:53:43.076Z,27.48
2022-08-26T11:56:15.764Z,27.66
2022-08-26T11:58:44.654Z,27.84
2022-08-26T12:01:21.796Z,27.91
2022-08-26T12:03:51.739Z,27.71
2022-08-26T12:06:46.573Z,27.45
2022-08-26T12:09:29.068Z,27.21
2022-08-26T12:12:14.263Z,27.64
2022-08-26T12:14:42.116Z,28.02
2022-08-26T12:17:26.653Z,28.06
2022-08-26T12:19:56.551Z,27.40
2022-08-26T12:22:30.516Z,27.17
2022-08-26T12:25:00.656Z,27.19
2022-08-26T12:27:28.960Z,27.30
2022-08-26T12:30:12.225Z,27.23
2022-08-26T12:32:52.859Z,27.51
2022-08-26T12:35:25.762Z,27.80
2022-08-26T12:37:54.321Z,28.11
2022-08-26T12:40:26.870Z,28.25
2022-08-26T12:43:00.437Z,28.38
2022-08-26T12:45:43.586Z,28.82
2022-08-26T12:48:24.455Z,29.69
2022-08-26T12:50:52.252Z,31.06
2022-08-26T12:53:27.993Z,31.97
2022-08-26T12:55:57.284Z,31.98
2022-08-26T12:58:23.831Z,31.85
2022-08-26T13:01:04.147Z,31.66
2022-08-26T13:03:37.528Z,31.57
2022-08-26T13:06:29.625Z,31.25
2022-08-26T13:08:57.857Z,30.84
2022-08-26T13:11:39.791Z,30.09
2022-08-26T13:14:10.942Z,29.74
2022-08-26T13:16:39.645Z,29.49
2022-08-26T13:19:10.193Z,29.66
2022-08-26T13:21:55.345Z,30.18
2022-08-26T13:24:34.269Z,30.10
2022-08-26T13:27:02.096Z,30.07
2022-08-26T13:29:29.046Z,30.10
2022-08-26T13:31:58.329Z,30.44
2022-08-26T13:34:28.147Z,30.37
2022-08-26T13:36:58.455Z,29.98
2022-08-26T13:39:28.183Z,29.85
2022-08-26T13:41:58.165Z,30.22
2022-08-26T13:44:25.335Z,30.53
2022-08-26T13:46:52.048Z,31.35
2022-08-26T13:49:18.629Z,32.09
2022-08-26T13:51:45.204Z,32.52
2022-08-26T13:54:11.840Z,33.25
2022-08-26T13:56:38.472Z,34.12
2022-08-26T13:59:06.571Z,34.45
2022-08-26T14:01:34.562Z,34.91
2022-08-26T14:04:03.125Z,34.37
2022-08-26T14:06:30.298Z,33.49
2022-08-26T14:08:57.260Z,33.14
2022-08-26T14:11:25.168Z,32.02
2022-08-26T14:13:52.394Z,31.48
2022-08-26T14:16:31.637Z,30.57
2022-08-26T14:19:01.266Z,29.98
2022-08-26T14:21:31.026Z,29.41
2022-08-26T14:24:01.156Z,29.11
2022-08-26T14:26:30.886Z,29.29
2022-08-26T14:28:58.976Z,30.18
2022-08-26T14:31:27.126Z,30.80
2022-08-26T14:33:54.772Z,31.17
2022-08-26T14:36:33.574Z,31.84
2022-08-26T14:39:04.908Z,32.37
2022-08-26T14:41:33.353Z,32.99
2022-08-26T14:44:10.347Z,33.58
2022-08-26T14:46:46.207Z,33.93
2022-08-26T14:49:13.359Z,33.82
2022-08-26T14:51:41.059Z,34.08
2022-08-26T14:54:11.908Z,34.16
2022-08-26T14:56:46.540Z,34.29
2022-08-26T14:59:19.117Z,34.17
2022-08-26T15:01:49.480Z,34.26
2022-08-26T15:04:16.629Z,34.10
2022-08-26T15:06:43.330Z,33.84
2022-08-26T15:09:10.871Z,33.90
2022-08-26T15:11:37.728Z,33.92
2022-08-26T15:14:18.937Z,33.88
2022-08-26T15:16:52.851Z,33.91
2022-08-26T15:19:20.980Z,33.75
2022-08-26T15:21:47.820Z,33.60
2022-08-26T15:24:17.000Z,33.64
2022-08-26T15:26:43.826Z,33.57
2022-08-26T15:29:10.645Z,33.33
2022-08-26T15:31:37.306Z,33.31
2022-08-26T15:34:13.343Z,33.16
2022-08-26T15:36:44.784Z,33.06
2022-08-26T15:39:12.067Z,32.79
2022-08-26T15:41:39.283Z,32.71
2022-08-26T15:44:07.462Z,32.46
2022-08-26T15:46:35.003Z,32.33
2022-08-26T15:49:03.100Z,32.16
2022-08-26T15:51:32.985Z,31.94
2022-08-26T15:54:02.671Z,31.76
2022-08-26T15:56:34.353Z,31.37
2022-08-26T15:59:02.433Z,31.12
2022-08-26T16:01:31.748Z,31.19
2022-08-26T16:04:01.752Z,31.14
2022-08-26T16:06:33.903Z,30.80
2022-08-26T16:09:00.976Z,30.63
2022-08-26T16:11:28.764Z,30.42
2022-08-26T16:13:55.717Z,30.35
2022-08-26T16:16:23.695Z,30.24
2022-08-26T16:18:50.549Z,30.30
2022-08-26T16:21:23.238Z,30.17
2022-08-26T16:23:50.931Z,30.04
2022-08-26T16:26:21.622Z,29.54
2022-08-26T16:28:48.205Z,29.11
2022-08-26T16:31:15.518Z,28.77
2022-08-26T16:33:43.535Z,28.58
2022-08-26T16:36:16.658Z,28.30
2022-08-26T16:38:50.012Z,28.04
2022-08-26T16:41:29.268Z,27.62
2022-08-26T16:43:58.697Z,27.47
2022-08-26T16:46:26.293Z,27.51
2022-08-26T16:48:58.699Z,27.74
2022-08-26T16:51:27.829Z,27.92
2022-08-26T16:53:59.291Z,27.99
2022-08-26T16:56:33.440Z,27.66
2022-08-26T16:59:01.753Z,27.49
2022-08-26T17:01:31.367Z,27.33
2022-08-26T17:04:01.230Z,27.32
2022-08-26T17:06:28.009Z,27.42
2022-08-26T17:08:54.597Z,27.57
2022-08-26T17:11:21.179Z,27.58
2022-08-26T17:13:47.792Z,27.66
2022-08-26T17:16:15.266Z,27.67
2022-08-26T17:18:41.977Z,27.66
2022-08-26T17:21:11.291Z,27.64
2022-08-26T17:23:41.198Z,27.47
2022-08-26T17:26:09.142Z,27.37
2022-08-26T17:28:36.048Z,27.16
2022-08-26T17:31:03.005Z,26.74
2022-08-26T17:33:30.183Z,26.36
2022-08-26T17:35:59.280Z,26.04
2022-08-26T17:38:29.092Z,26.01
2022-08-26T17:40:59.672Z,25.75
2022-08-26T17:43:26.782Z,25.72
2022-08-26T17:46:07.169Z,25.63
2022-08-26T17:48:35.540Z,25.47
2022-08-26T17:51:07.902Z,25.46
2022-08-26T17:53:34.435Z,25.35
2022-08-26T17:56:01.494Z,25.20
2022-08-26T17:58:28.887Z,25.09
2022-08-26T18:00:55.715Z,25.07
2022-08-26T18:03:22.929Z,24.89
2022-08-26T18:05:53.011Z,24.82
2022-08-26T18:08:20.190Z,24.80
2022-08-26T18:10:47.442Z,24.75
2022-08-26T18:13:17.470Z,24.67
2022-08-26T18:15:46.305Z,24.62
2022-08-26T18:18:14.555Z,24.59
2022-08-26T18:20:43.325Z,24.52
2022-08-26T18:23:10.667Z,24.36
2022-08-26T18:25:42.050Z,24.52
2022-08-26T18:28:09.363Z,24.48
2022-08-26T18:30:36.288Z,24.32
2022-08-26T18:33:03.123Z,24.30
2022-08-26T18:35:32.298Z,24.19
2022-08-26T18:38:10.486Z,24.17
2022-08-26T18:40:39.882Z,24.09
2022-08-26T18:43:06.562Z,24.01
2022-08-26T18:45:33.333Z,23.92
2022-08-26T18:48:01.829Z,23.77
2022-08-26T18:50:28.760Z,23.72
2022-08-26T18:52:55.335Z,23.56
2022-08-26T18:55:22.122Z,23.43
2022-08-26T18:57:49.551Z,23.36
2022-08-26T19:00:18.789Z,23.40
2022-08-26T19:02:51.838Z,23.50
2022-08-26T19:05:19.345Z,23.41
2022-08-26T19:07:46.141Z,23.35
2022-08-26T19:10:14.681Z,23.36
2022-08-26T19:12:41.260Z,23.30
2022-08-26T19:15:08.099Z,23.21
2022-08-26T19:17:34.651Z,23.12
2022-08-26T19:20:03.815Z,23.00
2022-08-26T19:22:32.551Z,23.08
2022-08-26T19:24:59.102Z,22.92
2022-08-26T19:27:25.827Z,22.82
2022-08-26T19:29:52.504Z,22.88
2022-08-26T19:32:24.186Z,22.81
2022-08-26T19:34:54.426Z,22.78
2022-08-26T19:37:21.752Z,22.73
2022-08-26T19:39:48.708Z,22.76
2022-08-26T19:42:16.490Z,22.70
2022-08-26T19:45:02.816Z,22.62
2022-08-26T19:47:29.510Z,22.64
2022-08-26T19:49:56.660Z,22.57
2022-08-26T19:52:24.416Z,22.48
2022-08-26T19:54:56.601Z,22.52
2022-08-26T19:57:23.159Z,22.47
2022-08-26T19:59:49.835Z,22.41
2022-08-26T20:02:16.771Z,22.37
2022-08-26T20:04:44.427Z,22.23
2022-08-26T20:07:18.089Z,22.33
2022-08-26T20:09:46.366Z,22.28
2022-08-26T20:12:12.944Z,22.14
2022-08-26T20:14:39.530Z,22.25
2022-08-26T20:17:06.262Z,22.24
2022-08-26T20:19:51.961Z,22.08
2022-08-26T20:22:19.490Z,22.14
2022-08-26T20:24:47.177Z,22.09
2022-08-26T20:27:15.452Z,22.05
2022-08-26T20:29:43.112Z,21.94
2022-08-26T20:32:12.111Z,21.99
2022-08-26T20:34:40.014Z,21.96
2022-08-26T20:37:08.452Z,21.94
2022-08-26T20:39:35.188Z,21.81
2022-08-26T20:42:05.718Z,21.75
2022-08-26T20:44:47.351Z,21.72
2022-08-26T20:47:21.712Z,21.69
2022-08-26T20:49:48.327Z,21.72
2022-08-26T20:52:19.766Z,21.63
2022-08-26T20:54:46.357Z,21.62
2022-08-26T20:57:14.472Z,21.58
2022-08-26T20:59:41.092Z,21.37
2022-08-26T21:02:08.027Z,21.43
2022-08-26T21:04:37.613Z,21.24
2022-08-26T21:07:04.462Z,21.30
2022-08-26T21:09:32.627Z,21.16
2022-08-26T21:11:59.261Z,21.10
2022-08-26T21:14:26.184Z,21.01
2022-08-26T21:16:53.389Z,21.03
2022-08-26T21:19:20.270Z,21.02
2022-08-26T21:21:48.301Z,21.01
2022-08-26T21:24:15.743Z,21.08
2022-08-26T21:26:42.652Z,20.86
2022-08-26T21:29:09.974Z,20.97
2022-08-26T21:31:45.487Z,20.84
2022-08-26T21:34:14.003Z,20.85
2022-08-26T21:36:40.644Z,20.71
2022-08-26T21:39:11.503Z,20.76
2022-08-26T21:41:39.762Z,20.74
2022-08-26T21:44:08.037Z,20.67
2022-08-26T21:46:37.334Z,20.67
2022-08-26T21:49:07.607Z,20.54
2022-08-26T21:51:40.239Z,20.64
2022-08-26T21:54:11.091Z,20.57
2022-08-26T21:56:42.197Z,20.45
2022-08-26T21:59:09.363Z,20.46
2022-08-26T22:01:38.325Z,20.22
2022-08-26T22:04:09.247Z,20.18
2022-08-26T22:06:41.889Z,20.27
2022-08-26T22:09:12.587Z,20.14
2022-08-26T22:11:39.514Z,20.18
2022-08-26T22:14:06.193Z,20.02
2022-08-26T22:16:32.917Z,20.01
2022-08-26T22:18:59.828Z,19.89
2022-08-26T22:21:28.432Z,19.83
2022-08-26T22:23:58.097Z,19.94
2022-08-26T22:26:29.091Z,20.00
2022-08-26T22:28:58.840Z,19.67
2022-08-26T22:31:37.505Z,19.82
2022-08-26T22:34:10.616Z,19.68
2022-08-26T22:36:43.299Z,19.68
2022-08-26T22:39:17.411Z,19.70
2022-08-26T22:41:45.024Z,19.65
2022-08-26T22:44:12.540Z,19.55
2022-08-26T22:46:40.664Z,19.58
2022-08-26T22:49:11.129Z,19.55
2022-08-26T22:51:38.125Z,19.47
2022-08-26T22:54:05.852Z,19.47
2022-08-26T22:56:32.484Z,19.26
2022-08-26T22:58:59.093Z,19.38
2022-08-26T23:01:25.963Z,19.09
2022-08-26T23:03:52.846Z,19.09
2022-08-26T23:06:19.480Z,19.22
2022-08-26T23:08:47.085Z,19.26
2022-08-26T23:11:15.012Z,19.33
2022-08-26T23:13:44.991Z,19.39
2022-08-26T23:16:14.493Z,19.33
2022-08-26T23:18:42.188Z,19.34
2022-08-26T23:21:12.510Z,19.51
2022-08-26T23:23:39.299Z,19.44
2022-08-26T23:26:07.821Z,19.46
2022-08-26T23:28:36.468Z,19.42
2022-08-26T23:31:03.345Z,19.55
2022-08-26T23:33:49.990Z,19.38
2022-08-26T23:36:18.144Z,19.52
2022-08-26T23:38:48.152Z,19.56
2022-08-26T23:41:20.141Z,19.57
2022-08-26T23:43:46.750Z,19.59
2022-08-26T23:46:16.499Z,19.43
2022-08-26T23:48:46.293Z,19.61
2022-08-26T23:51:31.742Z,19.63
2022-08-26T23:53:58.436Z,19.57
2022-08-26T23:56:25.367Z,19.47
2022-08-26T23:58:53.704Z,19.51
